createdAt,value
2018-03-02T00:00:40.434Z,20.07
2018-03-02T00:03:09.681Z,20.17
2018-03-02T00:05:39.009Z,27.97
2018-03-02T00:08:08.286Z,21.13
2018-03-02T00:10:37.558Z,24.63
2018-03-02T00:13:06.826Z,38.57
2018-03-02T00:15:36.855Z,33.20
2018-03-02T00:18:06.615Z,23.13
2018-03-02T00:20:35.920Z,29.93
2018-03-02T00:23:05.419Z,38.10
2018-03-02T00:25:34.656Z,27.93
2018-03-02T00:28:03.933Z,33.73
2018-03-02T00:30:33.254Z,26.97
2018-03-02T00:33:02.512Z,31.87
2018-03-02T00:35:31.811Z,20.47
2018-03-02T00:38:01.122Z,29.87
2018-03-02T00:40:30.452Z,34.73
2018-03-02T00:42:59.706Z,28.47
2018-03-02T00:45:28.998Z,32.03
2018-03-02T00:47:58.258Z,23.03
2018-03-02T00:50:27.549Z,26.70
2018-03-02T00:52:57.735Z,24.30
2018-03-02T00:55:26.993Z,26.20
2018-03-02T00:57:57.076Z,21.43
2018-03-02T01:00:26.402Z,24.93
2018-03-02T01:02:55.704Z,36.27
2018-03-02T01:05:25.039Z,14.23
2018-03-02T01:07:55.074Z,39.00
2018-03-02T01:10:24.351Z,28.43
2018-03-02T01:12:53.617Z,41.17
2018-03-02T01:15:22.902Z,35.07
2018-03-02T01:17:52.175Z,29.07
2018-03-02T01:20:21.483Z,31.10
2018-03-02T01:22:51.498Z,19.83
2018-03-02T01:25:20.774Z,22.17
2018-03-02T01:27:50.045Z,30.57
2018-03-02T01:30:19.330Z,36.63
2018-03-02T01:32:48.587Z,25.67
2018-03-02T01:35:18.070Z,36.50
2018-03-02T01:37:48.102Z,33.37
2018-03-02T01:40:17.374Z,20.30
2018-03-02T01:42:46.694Z,24.83
2018-03-02T01:45:15.973Z,33.10
2018-03-02T01:47:45.314Z,22.40
2018-03-02T01:50:14.608Z,26.47
2018-03-02T01:52:44.021Z,28.50
2018-03-02T01:55:13.306Z,36.37
2018-03-02T01:57:43.344Z,22.57
2018-03-02T02:00:12.627Z,26.23
2018-03-02T02:02:41.908Z,28.53
2018-03-02T02:05:11.229Z,47.13
2018-03-02T02:07:40.610Z,20.23
2018-03-02T02:10:09.887Z,26.33
2018-03-02T02:12:39.214Z,26.30
2018-03-02T02:15:08.539Z,26.77
2018-03-02T02:17:38.583Z,25.13
2018-03-02T02:20:07.992Z,26.70
2018-03-02T02:22:37.253Z,26.87
2018-03-02T02:25:07.322Z,35.67
2018-03-02T02:27:36.617Z,31.30
2018-03-02T02:30:06.622Z,28.67
2018-03-02T02:32:35.903Z,6.07
2018-03-02T02:35:05.965Z,35.33
2018-03-02T02:37:35.319Z,9.50
2018-03-02T02:40:04.577Z,29.93
2018-03-02T02:42:33.899Z,32.87
2018-03-02T02:45:03.278Z,28.10
2018-03-02T02:47:33.253Z,32.93
2018-03-02T02:50:02.544Z,17.40
2018-03-02T02:52:33.341Z,30.77
2018-03-02T02:55:02.640Z,25.17
2018-03-02T02:57:31.907Z,29.17
2018-03-02T03:00:01.175Z,24.27
2018-03-02T03:02:30.468Z,15.50
2018-03-02T03:04:59.750Z,24.00
2018-03-02T03:07:29.118Z,24.60
2018-03-02T03:09:58.409Z,23.60
2018-03-02T03:12:27.695Z,28.80
2018-03-02T03:14:57.690Z,24.63
2018-03-02T03:17:27.294Z,39.67
2018-03-02T03:19:56.536Z,30.70
2018-03-02T03:22:25.840Z,16.87
2018-03-02T03:24:55.112Z,21.97
2018-03-02T03:27:24.389Z,33.47
2018-03-02T03:29:53.690Z,11.07
2018-03-02T03:32:22.944Z,27.13
2018-03-02T03:34:52.282Z,24.30
2018-03-02T03:37:21.585Z,25.23
2018-03-02T03:39:50.825Z,28.83
2018-03-02T03:42:20.232Z,48.47
2018-03-02T03:44:50.277Z,28.60
2018-03-02T03:47:19.583Z,31.10
2018-03-02T03:49:48.838Z,39.40
2018-03-02T03:52:18.138Z,22.73
2018-03-02T03:54:47.449Z,33.00
2018-03-02T03:57:16.734Z,26.70
2018-03-02T03:59:46.025Z,22.10
2018-03-02T04:02:15.300Z,24.17
2018-03-02T04:04:44.576Z,26.70
2018-03-02T04:07:14.610Z,17.83
2018-03-02T04:09:43.906Z,21.53
2018-03-02T04:12:13.176Z,29.60
2018-03-02T04:14:43.206Z,24.10
2018-03-02T04:17:13.277Z,29.97
2018-03-02T04:19:42.541Z,47.50
2018-03-02T04:22:11.842Z,38.17
2018-03-02T04:24:41.110Z,32.60
2018-03-02T04:27:10.581Z,21.57
2018-03-02T04:29:39.843Z,28.07
2018-03-02T04:32:09.183Z,30.13
2018-03-02T04:34:39.126Z,19.50
2018-03-02T04:37:08.442Z,28.17
2018-03-02T04:39:37.723Z,31.77
2018-03-02T04:42:06.978Z,24.20
2018-03-02T04:44:36.252Z,25.50
2018-03-02T04:47:06.282Z,26.07
2018-03-02T04:49:35.578Z,30.67
2018-03-02T04:52:04.862Z,28.70
2018-03-02T04:54:34.279Z,29.43
2018-03-02T04:57:04.333Z,36.10
2018-03-02T04:59:33.639Z,23.03
2018-03-02T05:02:03.602Z,32.53
2018-03-02T05:04:33.088Z,28.50
2018-03-02T05:07:02.382Z,32.90
2018-03-02T05:09:31.651Z,29.50
2018-03-02T05:12:01.219Z,28.17
2018-03-02T05:14:31.288Z,34.03
2018-03-02T05:17:00.550Z,38.13
2018-03-02T05:19:29.860Z,24.60
2018-03-02T05:21:59.121Z,16.13
2018-03-02T05:24:28.502Z,30.30
2018-03-02T05:26:57.782Z,48.00
2018-03-02T05:29:27.090Z,27.33
2018-03-02T05:31:56.391Z,21.07
2018-03-02T05:34:26.323Z,19.67
2018-03-02T05:36:55.596Z,25.83
2018-03-02T05:39:25.016Z,13.07
2018-03-02T05:41:54.317Z,31.53
2018-03-02T05:44:23.597Z,18.13
2018-03-02T05:46:53.647Z,27.23
2018-03-02T05:49:22.924Z,27.37
2018-03-02T05:51:52.214Z,39.70
2018-03-02T05:54:21.515Z,26.40
2018-03-02T05:56:50.808Z,25.40
2018-03-02T05:59:20.917Z,31.87
2018-03-02T06:01:50.215Z,38.80
2018-03-02T06:04:19.625Z,19.37
2018-03-02T06:06:49.694Z,28.67
2018-03-02T06:09:19.025Z,23.07
2018-03-02T06:11:48.452Z,48.65
2018-03-02T06:14:17.736Z,32.67
2018-03-02T06:16:47.292Z,42.20
2018-03-02T06:19:17.337Z,20.80
2018-03-02T06:21:46.615Z,23.73
2018-03-02T06:24:15.907Z,31.00
2018-03-02T06:26:45.731Z,35.33
2018-03-02T06:29:15.016Z,11.93
2018-03-02T06:31:45.106Z,26.83
2018-03-02T06:34:14.454Z,29.50
2018-03-02T06:36:43.857Z,21.20
2018-03-02T06:42:20.875Z,31.80
2018-03-02T06:44:50.194Z,28.30
2018-03-02T06:47:19.829Z,24.80
2018-03-02T06:49:49.102Z,30.60
2018-03-02T06:52:18.404Z,20.43
2018-03-02T06:54:47.671Z,29.20
2018-03-02T06:57:17.743Z,35.03
2018-03-02T06:59:47.321Z,31.53
2018-03-02T07:02:16.695Z,28.97
2018-03-02T07:04:45.994Z,28.73
2018-03-02T07:07:15.369Z,21.50
2018-03-02T07:09:44.756Z,21.20
2018-03-02T07:12:14.076Z,35.03
2018-03-02T07:14:43.542Z,17.77
2018-03-02T07:17:12.811Z,48.37
2018-03-02T07:19:42.932Z,26.83
2018-03-02T07:22:12.987Z,21.50
2018-03-02T07:24:42.274Z,15.73
2018-03-02T07:27:11.597Z,26.57
2018-03-02T07:29:40.914Z,19.50
2018-03-02T07:32:10.208Z,26.33
2018-03-02T07:34:39.470Z,21.83
2018-03-02T07:37:08.759Z,16.27
2018-03-02T07:39:38.017Z,29.87
2018-03-02T07:42:07.496Z,18.80
2018-03-02T07:44:36.745Z,32.87
2018-03-02T07:47:06.044Z,30.10
2018-03-02T07:49:35.307Z,23.03
2018-03-02T07:52:04.583Z,39.70
2018-03-02T07:54:34.102Z,30.97
2018-03-02T07:57:03.440Z,31.97
2018-03-02T07:59:32.813Z,21.53
2018-03-02T08:02:02.284Z,29.10
2018-03-02T08:04:32.327Z,27.93
2018-03-02T08:07:01.578Z,32.10
2018-03-02T08:09:30.896Z,22.63
2018-03-02T08:12:00.164Z,34.73
2018-03-02T08:14:29.435Z,40.17
2018-03-02T08:16:58.749Z,24.97
2018-03-02T08:19:28.782Z,36.83
2018-03-02T08:21:58.827Z,21.63
2018-03-02T08:24:28.136Z,28.87
2018-03-02T08:26:57.408Z,36.67
2018-03-02T08:29:26.680Z,26.73
2018-03-02T08:31:55.964Z,31.20
2018-03-02T08:34:25.265Z,25.47
2018-03-02T08:36:54.555Z,13.63
2018-03-02T08:39:23.833Z,29.27
2018-03-02T08:41:53.133Z,37.03
2018-03-02T08:44:23.049Z,26.90
2018-03-02T08:46:52.358Z,51.17
2018-03-02T08:49:21.813Z,32.43
2018-03-02T08:51:52.027Z,26.27
2018-03-02T08:54:21.362Z,14.70
2018-03-02T08:56:50.616Z,25.17
2018-03-02T08:59:19.915Z,44.47
2018-03-02T09:01:49.294Z,25.97
2018-03-02T09:04:18.581Z,32.73
2018-03-02T09:06:47.874Z,36.47
2018-03-02T09:09:17.221Z,30.13
2018-03-02T09:11:46.541Z,30.10
2018-03-02T09:14:15.875Z,31.70
2018-03-02T09:16:45.357Z,239.00
2018-03-02T09:19:14.633Z,69.00
2018-03-02T09:21:43.989Z,56.57
2018-03-02T09:24:13.281Z,104.30
2018-03-02T09:26:42.788Z,26.17
2018-03-02T09:29:12.037Z,33.50
2018-03-02T09:31:41.520Z,33.93
2018-03-02T09:34:10.793Z,22.50
2018-03-02T09:36:40.640Z,15.10
2018-03-02T09:39:09.927Z,49.80
2018-03-02T09:41:39.962Z,35.20
2018-03-02T09:44:09.253Z,32.47
2018-03-02T09:46:38.545Z,30.63
2018-03-02T09:49:07.809Z,34.67
2018-03-02T09:51:37.122Z,32.07
2018-03-02T09:54:06.389Z,35.47
2018-03-02T09:56:35.785Z,36.87
2018-03-02T09:59:05.133Z,21.03
2018-03-02T10:01:34.404Z,33.63
2018-03-02T10:04:03.699Z,30.80
2018-03-02T10:06:33.712Z,22.17
2018-03-02T10:09:03.739Z,36.07
2018-03-02T10:11:33.082Z,28.03
2018-03-02T10:14:02.282Z,37.23
2018-03-02T10:16:31.647Z,40.17
2018-03-02T10:19:00.907Z,33.17
2018-03-02T10:21:30.205Z,35.20
2018-03-02T10:23:59.606Z,33.17
2018-03-02T10:26:29.706Z,37.97
2018-03-02T10:28:58.999Z,38.90
2018-03-02T10:31:28.327Z,37.73
2018-03-02T10:33:57.586Z,32.90
2018-03-02T10:36:27.104Z,44.73
2018-03-02T10:38:56.407Z,48.27
2018-03-02T10:41:25.678Z,30.83
2018-03-02T10:43:54.970Z,48.97
2018-03-02T10:46:33.424Z,44.20
2018-03-02T10:49:02.929Z,18.40
2018-03-02T10:51:32.393Z,34.70
2018-03-02T10:54:01.724Z,37.37
2018-03-02T10:56:30.965Z,51.33
2018-03-02T10:59:00.304Z,46.20
2018-03-02T11:01:29.595Z,38.30
2018-03-02T11:04:01.209Z,32.20
2018-03-02T11:06:30.682Z,32.43
2018-03-02T11:09:00.154Z,39.63
2018-03-02T11:11:29.447Z,35.00
2018-03-02T11:13:58.716Z,42.93
2018-03-02T11:16:28.789Z,36.80
2018-03-02T11:18:58.053Z,48.73
2018-03-02T11:21:27.394Z,38.87
2018-03-02T11:23:56.658Z,36.57
2018-03-02T11:26:26.262Z,50.97
2018-03-02T11:28:56.278Z,37.37
2018-03-02T11:31:25.542Z,40.47
2018-03-02T11:33:54.819Z,44.60
2018-03-02T11:36:24.107Z,40.00
2018-03-02T11:38:53.379Z,50.17
2018-03-02T11:41:23.409Z,44.37
2018-03-02T11:43:52.682Z,47.57
2018-03-02T11:46:21.955Z,41.40
2018-03-02T11:48:51.231Z,58.13
2018-03-02T11:51:20.519Z,47.43
2018-03-02T11:53:49.856Z,50.67
2018-03-02T11:56:19.125Z,49.80
2018-03-02T11:58:48.386Z,42.73
2018-03-02T12:01:17.651Z,46.60
2018-03-02T12:03:46.905Z,31.50
2018-03-02T12:06:16.191Z,46.73
2018-03-02T12:08:45.987Z,47.33
2018-03-02T12:11:15.306Z,10.47
2018-03-02T12:13:44.567Z,41.60
2018-03-02T12:16:13.899Z,42.20
2018-03-02T12:18:43.160Z,41.13
2018-03-02T12:21:12.572Z,50.20
2018-03-02T12:23:42.025Z,50.80
2018-03-02T12:26:11.272Z,43.37
2018-03-02T12:28:40.555Z,43.63
2018-03-02T12:31:10.833Z,45.00
2018-03-02T12:33:40.245Z,38.13
2018-03-02T12:36:09.956Z,35.70
2018-03-02T12:38:40.236Z,49.87
2018-03-02T12:41:10.255Z,47.70
2018-03-02T12:43:46.244Z,51.40
2018-03-02T12:46:15.780Z,47.43
2018-03-02T12:48:45.107Z,48.80
2018-03-02T12:51:14.682Z,49.17
2018-03-02T12:53:43.949Z,46.27
2018-03-02T12:56:14.057Z,52.60
2018-03-02T12:58:44.145Z,37.87
2018-03-02T13:01:14.033Z,40.67
2018-03-02T13:03:43.336Z,46.07
2018-03-02T13:06:12.581Z,43.27
2018-03-02T13:08:41.850Z,38.87
2018-03-02T13:11:11.358Z,38.47
2018-03-02T13:13:40.653Z,46.80
2018-03-02T13:16:12.454Z,41.10
2018-03-02T13:18:43.703Z,52.13
2018-03-02T13:21:13.004Z,50.70
2018-03-02T13:23:42.529Z,56.63
2018-03-02T13:26:23.542Z,48.30
2018-03-02T13:28:53.932Z,50.87
2018-03-02T13:31:24.019Z,59.50
2018-03-02T13:34:10.869Z,47.53
2018-03-02T13:36:40.127Z,47.20
2018-03-02T13:39:10.061Z,49.07
2018-03-02T13:41:58.696Z,55.17
2018-03-02T13:44:28.084Z,48.93
2018-03-02T13:46:57.342Z,58.63
2018-03-02T13:49:44.432Z,47.30
2018-03-02T13:52:15.749Z,50.50
2018-03-02T13:54:46.678Z,59.20
2018-03-02T13:57:35.210Z,53.17
2018-03-02T14:00:04.520Z,49.80
2018-03-02T14:05:41.822Z,57.10
2018-03-02T14:08:11.098Z,44.97
2018-03-02T14:10:40.348Z,49.27
2018-03-02T14:13:10.559Z,32.53
2018-03-02T14:15:39.863Z,65.63
2018-03-02T14:18:09.199Z,61.90
2018-03-02T14:20:38.472Z,42.90
2018-03-02T14:23:07.733Z,47.43
2018-03-02T14:25:38.549Z,76.10
2018-03-02T14:28:07.812Z,53.90
2018-03-02T14:30:37.080Z,58.53
2018-03-02T14:33:06.394Z,52.57
2018-03-02T14:35:35.809Z,52.47
2018-03-02T14:38:05.831Z,44.17
2018-03-02T14:40:35.131Z,52.30
2018-03-02T14:43:04.497Z,58.70
2018-03-02T14:45:33.778Z,49.43
2018-03-02T14:48:03.035Z,45.83
2018-03-02T14:50:33.071Z,52.87
2018-03-02T14:53:02.371Z,60.80
2018-03-02T14:55:31.643Z,54.57
2018-03-02T14:58:02.581Z,48.17
2018-03-02T15:00:31.827Z,54.03
2018-03-02T15:03:01.110Z,41.00
2018-03-02T15:05:31.158Z,36.13
2018-03-02T15:08:00.541Z,47.33
2018-03-02T15:10:29.806Z,41.57
2018-03-02T15:12:59.092Z,53.43
2018-03-02T15:15:28.349Z,51.30
2018-03-02T15:17:57.639Z,48.70
2018-03-02T15:20:26.920Z,51.57
2018-03-02T15:22:56.197Z,50.87
2018-03-02T15:25:25.466Z,39.93
2018-03-02T15:27:54.724Z,60.83
2018-03-02T15:30:24.766Z,51.00
2018-03-02T15:32:54.011Z,46.20
2018-03-02T15:35:23.309Z,46.30
2018-03-02T15:37:52.562Z,53.90
2018-03-02T15:40:22.610Z,56.50
2018-03-02T15:42:51.878Z,51.23
2018-03-02T15:45:21.153Z,54.60
2018-03-02T15:47:51.977Z,49.40
2018-03-02T15:50:21.266Z,55.03
2018-03-02T15:52:50.515Z,47.53
2018-03-02T15:55:19.797Z,45.23
2018-03-02T15:57:49.093Z,54.63
2018-03-02T16:00:18.360Z,50.27
2018-03-02T16:02:47.638Z,45.20
2018-03-02T16:05:16.904Z,45.47
2018-03-02T16:07:46.170Z,52.43
2018-03-02T16:10:15.457Z,60.73
2018-03-02T16:12:44.721Z,47.60
2018-03-02T16:15:14.800Z,49.03
2018-03-02T16:17:44.086Z,48.50
2018-03-02T16:20:13.374Z,40.47
2018-03-02T16:22:42.675Z,45.03
2018-03-02T16:25:11.959Z,54.33
2018-03-02T16:27:41.235Z,58.30
2018-03-02T16:30:10.561Z,49.23
2018-03-02T16:32:39.841Z,43.83
2018-03-02T16:35:09.085Z,46.53
2018-03-02T16:37:38.378Z,51.23
2018-03-02T16:40:07.633Z,48.83
2018-03-02T16:42:36.950Z,53.50
2018-03-02T16:45:06.479Z,41.13
2018-03-02T16:47:35.751Z,39.37
2018-03-02T16:50:05.042Z,37.00
2018-03-02T16:52:34.553Z,36.60
2018-03-02T16:55:03.894Z,48.70
2018-03-02T16:57:33.148Z,45.87
2018-03-02T17:00:02.458Z,47.80
2018-03-02T17:02:31.737Z,58.27
2018-03-02T17:05:01.067Z,44.97
2018-03-02T17:07:30.298Z,26.80
2018-03-02T17:09:59.585Z,36.07
2018-03-02T17:12:29.645Z,36.80
2018-03-02T17:14:58.906Z,43.07
2018-03-02T17:17:28.206Z,48.57
2018-03-02T17:19:57.617Z,57.50
2018-03-02T17:22:27.724Z,49.80
2018-03-02T17:24:57.766Z,44.07
2018-03-02T17:27:27.322Z,50.13
2018-03-02T17:29:56.604Z,47.00
2018-03-02T17:32:25.863Z,48.47
2018-03-02T17:34:55.282Z,30.57
2018-03-02T17:37:24.689Z,53.40
2018-03-02T17:39:54.073Z,47.27
2018-03-02T17:42:23.303Z,50.53
2018-03-02T17:44:52.586Z,45.03
2018-03-02T17:47:21.887Z,38.47
2018-03-02T17:49:51.152Z,54.27
2018-03-02T17:52:22.736Z,57.73
2018-03-02T17:54:52.013Z,51.17
2018-03-02T17:57:21.344Z,48.27
2018-03-02T17:59:50.631Z,55.77
2018-03-02T18:02:20.226Z,33.90
2018-03-02T18:04:50.409Z,38.73
2018-03-02T18:07:21.558Z,51.57
2018-03-02T18:09:51.408Z,47.07
2018-03-02T18:12:20.674Z,52.27
2018-03-02T18:14:49.990Z,45.20
2018-03-02T18:17:19.258Z,42.00
2018-03-02T18:19:48.558Z,47.03
2018-03-02T18:22:17.826Z,53.87
2018-03-02T18:24:47.270Z,55.13
2018-03-02T18:27:16.968Z,43.00
2018-03-02T18:29:47.010Z,46.10
2018-03-02T18:32:16.492Z,53.00
2018-03-02T18:34:45.824Z,51.97
2018-03-02T18:37:15.876Z,49.50
2018-03-02T18:39:45.207Z,42.33
2018-03-02T18:42:14.510Z,55.97
2018-03-02T18:44:43.859Z,43.93
2018-03-02T18:47:13.131Z,59.80
2018-03-02T18:49:42.408Z,55.90
2018-03-02T18:52:11.727Z,53.33
2018-03-02T18:54:41.051Z,50.43
2018-03-02T18:57:10.438Z,58.73
2018-03-02T18:59:39.813Z,50.87
2018-03-02T19:02:09.863Z,52.77
2018-03-02T19:04:42.185Z,43.93
2018-03-02T19:07:11.432Z,46.93
2018-03-02T19:09:40.946Z,51.33
2018-03-02T19:12:10.240Z,52.27
2018-03-02T19:14:39.865Z,50.27
2018-03-02T19:17:09.135Z,56.67
2018-03-02T19:19:39.195Z,53.87
2018-03-02T19:22:08.490Z,50.57
2018-03-02T19:24:37.856Z,49.73
2018-03-02T19:27:07.954Z,44.07
2018-03-02T19:29:38.567Z,52.67
2018-03-02T19:32:07.864Z,61.13
2018-03-02T19:34:37.179Z,46.73
2018-03-02T19:37:06.517Z,57.23
2018-03-02T19:39:36.668Z,57.60
2018-03-02T19:42:05.967Z,50.10
2018-03-02T19:44:35.577Z,46.27
2018-03-02T19:47:05.721Z,51.97
2018-03-02T19:49:35.033Z,52.73
2018-03-02T19:52:04.349Z,53.03
2018-03-02T19:54:33.683Z,56.73
2018-03-02T19:57:02.972Z,56.10
2018-03-02T19:59:32.357Z,63.03
2018-03-02T20:02:01.700Z,52.07
2018-03-02T20:04:31.079Z,56.53
2018-03-02T20:07:00.398Z,59.53
2018-03-02T20:09:30.464Z,51.27
2018-03-02T20:11:59.788Z,59.57
2018-03-02T20:14:29.150Z,73.97
2018-03-02T20:16:58.458Z,74.10
2018-03-02T20:19:28.012Z,61.10
2018-03-02T20:21:58.114Z,64.37
2018-03-02T20:24:27.369Z,69.83
2018-03-02T20:26:56.641Z,74.47
2018-03-02T20:29:25.965Z,60.30
2018-03-02T20:31:55.979Z,76.07
2018-03-02T20:34:27.051Z,68.77
2018-03-02T20:36:56.354Z,79.70
2018-03-02T20:39:25.677Z,59.87
2018-03-02T20:41:55.595Z,66.03
2018-03-02T20:44:25.003Z,82.20
2018-03-02T20:46:54.299Z,85.27
2018-03-02T20:49:23.559Z,73.43
2018-03-02T20:51:52.980Z,74.97
2018-03-02T20:54:22.354Z,60.50
2018-03-02T20:56:51.711Z,76.60
2018-03-02T20:59:21.039Z,81.70
2018-03-02T21:01:50.357Z,91.87
2018-03-02T21:04:19.901Z,79.40
2018-03-02T21:06:49.201Z,74.13
2018-03-02T21:09:18.523Z,105.03
2018-03-02T21:11:47.838Z,98.10
2018-03-02T21:14:17.220Z,79.53
2018-03-02T21:16:46.526Z,84.30
2018-03-02T21:19:15.817Z,102.57
2018-03-02T21:21:45.143Z,87.43
2018-03-02T21:24:15.224Z,83.93
2018-03-02T21:26:44.571Z,73.80
2018-03-02T21:29:17.705Z,70.60
2018-03-02T21:31:47.129Z,63.40
2018-03-02T21:34:18.977Z,75.67
2018-03-02T21:36:45.764Z,74.83
2018-03-02T21:39:15.312Z,70.53
2018-03-02T21:41:44.600Z,76.50
2018-03-02T21:44:13.947Z,88.60
2018-03-02T21:46:43.349Z,73.70
2018-03-02T21:49:12.706Z,81.63
2018-03-02T21:51:43.297Z,69.97
2018-03-02T21:54:12.887Z,63.77
2018-03-02T21:56:42.960Z,78.63
2018-03-02T21:59:12.256Z,64.23
2018-03-02T22:01:41.567Z,75.63
2018-03-02T22:04:10.873Z,78.57
2018-03-02T22:06:40.210Z,75.40
2018-03-02T22:09:09.502Z,78.80
2018-03-02T22:11:38.854Z,64.33
2018-03-02T22:14:08.948Z,74.53
2018-03-02T22:16:38.345Z,82.47
2018-03-02T22:19:07.812Z,76.63
2018-03-02T22:21:37.180Z,80.87
2018-03-02T22:24:06.498Z,71.30
2018-03-02T22:26:35.792Z,83.40
2018-03-02T22:29:05.082Z,93.77
2018-03-02T22:31:34.367Z,80.80
2018-03-02T22:34:03.641Z,87.30
2018-03-02T22:36:32.988Z,81.73
2018-03-02T22:39:02.320Z,82.53
2018-03-02T22:41:31.560Z,86.53
2018-03-02T22:44:00.877Z,92.00
2018-03-02T22:46:30.138Z,65.87
2018-03-02T22:48:59.434Z,87.50
2018-03-02T22:51:28.728Z,84.00
2018-03-02T22:53:58.798Z,80.57
2018-03-02T22:56:28.029Z,89.33
2018-03-02T22:58:57.364Z,81.77
2018-03-02T23:01:26.640Z,77.70
2018-03-02T23:03:55.933Z,68.23
2018-03-02T23:06:25.956Z,75.93
2018-03-02T23:08:56.042Z,85.63
2018-03-02T23:11:25.356Z,82.10
2018-03-02T23:13:54.659Z,84.47
2018-03-02T23:16:23.878Z,87.03
2018-03-02T23:18:53.157Z,69.43
2018-03-02T23:21:23.965Z,81.43
2018-03-02T23:23:53.290Z,109.77
2018-03-02T23:26:22.628Z,93.63
2018-03-02T23:28:52.655Z,82.97
2018-03-02T23:31:21.938Z,89.30
2018-03-02T23:33:51.230Z,76.83
2018-03-02T23:36:20.535Z,107.67
2018-03-02T23:38:49.827Z,79.73
2018-03-02T23:41:19.075Z,77.47
2018-03-02T23:43:48.349Z,80.90
2018-03-02T23:46:18.412Z,96.07
2018-03-02T23:48:47.755Z,72.53
2018-03-02T23:51:16.988Z,90.57
2018-03-02T23:53:46.291Z,87.23
2018-03-02T23:56:15.540Z,78.93
2018-03-02T23:58:44.812Z,82.77
